Time;durP1;ratioP1;P1;durP2;ratioP2;P2;SDS_P1;SDS_P2;PMS_P1;PMS_P2;Temp;Humidity;BMP_temperature;BMP_pressure;BME280_temperature;BME280_humidity;BME280_pressure;Samples;Min_cycle;Max_cycle;Signal;HPM_P1;HPM_P2
2021/01/15 00:00:05;;;;;;;1999.90;999.90;;;0.70;99.90;;;;;;5020882;28;20173;-85
2021/01/15 00:02:31;;;;;;;1999.90;999.90;;;0.80;99.90;;;;;;4987403;28;20228;-84
2021/01/15 00:04:56;;;;;;;1999.90;999.90;;;0.80;99.90;;;;;;5021647;28;20159;-85
2021/01/15 00:07:22;;;;;;;1999.90;999.90;;;0.80;99.90;;;;;;5021353;28;20165;-85
2021/01/15 00:09:48;;;;;;;1999.90;999.90;;;0.80;99.90;;;;;;5021541;28;20169;-85
2021/01/15 00:12:13;;;;;;;1999.90;999.90;;;0.80;99.90;;;;;;5021315;28;20166;-85
2021/01/15 00:14:39;;;;;;;1999.90;999.90;;;0.80;99.90;;;;;;5003263;28;20535;-85
2021/01/15 00:17:05;;;;;;;1999.90;999.90;;;0.70;99.90;;;;;;5003594;28;20170;-85
2021/01/15 00:19:30;;;;;;;1999.90;999.90;;;0.70;99.90;;;;;;5003993;28;20162;-85
2021/01/15 00:21:56;;;;;;;1999.90;999.90;;;0.70;99.90;;;;;;5022084;28;20436;-85
2021/01/15 00:24:22;;;;;;;1999.90;999.90;;;0.70;99.90;;;;;;5004252;28;20208;-85
2021/01/15 00:26:48;;;;;;;1999.90;999.90;;;0.70;99.90;;;;;;5021530;28;20166;-84
2021/01/15 00:29:17;;;;;;;1999.90;999.90;;;0.80;99.90;;;;;;5021778;28;20220;-85
2021/01/15 00:31:46;;;;;;;1999.90;999.90;;;0.80;99.90;;;;;;5003914;28;20166;-84
2021/01/15 00:34:13;;;;;;;1999.90;999.90;;;0.80;99.90;;;;;;5021657;28;20208;-84
2021/01/15 00:36:40;;;;;;;1999.90;999.90;;;0.80;99.90;;;;;;5003203;28;20178;-84
2021/01/15 00:39:08;;;;;;;1999.90;999.90;;;0.90;99.90;;;;;;5021682;28;20261;-85
2021/01/15 00:41:38;;;;;;;1999.90;999.90;;;0.80;99.90;;;;;;5003670;28;20173;-85
2021/01/15 00:44:05;;;;;;;1999.90;999.90;;;0.80;99.90;;;;;;5003782;28;20177;-85
2021/01/15 00:46:32;;;;;;;1999.90;999.90;;;0.70;99.90;;;;;;5021239;28;20158;-85
2021/01/15 00:49:08;;;;;;;1999.90;999.90;;;0.70;99.90;;;;;;5003885;28;20625;-85
2021/01/15 00:51:35;;;;;;;1999.90;999.90;;;0.80;99.90;;;;;;5003857;28;20170;-84
2021/01/15 00:54:03;;;;;;;1999.90;999.90;;;0.70;99.90;;;;;;5020936;28;20189;-84
2021/01/15 00:56:29;;;;;;;1999.90;999.90;;;0.60;99.90;;;;;;5021430;28;20170;-84
2021/01/15 00:58:54;;;;;;;1999.90;999.90;;;0.60;99.90;;;;;;5021474;28;20205;-84
2021/01/15 01:01:22;;;;;;;1999.90;999.90;;;0.60;99.90;;;;;;5021129;28;20162;-85
2021/01/15 01:03:49;;;;;;;1999.90;999.90;;;0.50;99.90;;;;;;5003767;28;20181;-84
2021/01/15 01:06:17;;;;;;;1999.90;999.90;;;0.50;99.90;;;;;;5021060;28;20162;-84
2021/01/15 01:08:42;;;;;;;1999.90;999.90;;;0.70;99.90;;;;;;5021239;28;20241;-84
2021/01/15 01:11:13;;;;;;;1999.90;999.90;;;0.70;99.90;;;;;;5007039;28;20704;-84
2021/01/15 01:13:39;;;;;;;1999.90;999.90;;;0.80;99.90;;;;;;5025368;28;20449;-84
2021/01/15 01:16:05;;;;;;;1999.90;999.90;;;0.90;99.90;;;;;;5007624;28;20348;-84
2021/01/15 01:18:33;;;;;;;1999.90;999.90;;;0.80;99.90;;;;;;5024917;28;20180;-85
2021/01/15 01:20:59;;;;;;;1999.90;999.90;;;0.70;99.90;;;;;;5025022;28;20479;-85
2021/01/15 01:23:25;;;;;;;1999.90;999.90;;;0.70;99.90;;;;;;5007497;28;20201;-85
2021/01/15 01:25:50;;;;;;;1999.90;999.90;;;0.70;99.90;;;;;;5025263;28;20162;-84
2021/01/15 01:28:17;;;;;;;1999.90;999.90;;;0.80;99.90;;;;;;5024287;28;20162;-84
2021/01/15 01:30:42;;;;;;;1999.90;999.90;;;0.70;99.90;;;;;;5007361;28;20170;-84
2021/01/15 01:33:08;;;;;;;1999.90;999.90;;;0.70;99.90;;;;;;5007963;28;20170;-84
2021/01/15 01:35:34;;;;;;;1999.90;999.90;;;0.70;99.90;;;;;;5024597;28;20182;-84
2021/01/15 01:38:02;;;;;;;1999.90;999.90;;;0.60;99.90;;;;;;5024888;28;20146;-84
2021/01/15 01:40:27;;;;;;;1999.90;999.90;;;0.50;99.90;;;;;;5024202;28;20170;-84
2021/01/15 01:42:53;;;;;;;1999.90;999.90;;;0.40;99.90;;;;;;5024479;28;20158;-85
2021/01/15 01:45:19;;;;;;;1999.90;999.90;;;0.30;99.90;;;;;;5024335;28;20179;-85
2021/01/15 01:47:45;;;;;;;1999.90;999.90;;;0.20;99.90;;;;;;5007054;28;20232;-85
2021/01/15 01:50:11;;;;;;;1999.90;999.90;;;0.10;99.90;;;;;;5024371;28;20412;-84
2021/01/15 01:52:38;;;;;;;1999.90;999.90;;;0.00;99.90;;;;;;5024355;28;20408;-84
2021/01/15 01:55:12;;;;;;;1999.90;999.90;;;0.10;99.90;;;;;;5006756;28;20280;-85
2021/01/15 01:57:38;;;;;;;1999.90;999.90;;;0.00;99.90;;;;;;5007222;28;20166;-84
2021/01/15 02:00:05;;;;;;;1999.90;999.90;;;0.00;99.90;;;;;;5024552;28;20174;-85
2021/01/15 02:02:31;;;;;;;1999.90;999.90;;;0.00;99.90;;;;;;5006842;28;20409;-85
2021/01/15 02:04:56;;;;;;;1999.90;999.90;;;-0.10;99.90;;;;;;5024590;28;20193;-84
2021/01/15 02:07:27;;;;;;;1999.90;999.90;;;-0.10;99.90;;;;;;5024783;28;20174;-85
2021/01/15 02:10:12;;;;;;;1999.90;999.90;;;-0.10;99.90;;;;;;5024031;28;20573;-85
2021/01/15 02:13:00;;;;;;;1999.90;999.90;;;-0.10;99.90;;;;;;5024047;28;20154;-84
2021/01/15 02:15:44;;;;;;;1999.90;999.90;;;0.00;99.90;;;;;;5005318;28;20201;-84
2021/01/15 02:18:27;;;;;;;1999.90;999.90;;;0.10;99.90;;;;;;5024026;28;20249;-84
2021/01/15 02:21:04;;;;;;;1999.90;999.90;;;0.00;99.90;;;;;;5005175;28;20633;-84
2021/01/15 02:23:46;;;;;;;1999.90;999.90;;;0.10;99.90;;;;;;5024144;28;20169;-84
2021/01/15 02:26:57;;;;;;;1999.90;999.90;;;0.10;99.90;;;;;;5023257;28;20228;-84
2021/01/15 02:29:28;;;;;;;1999.90;999.90;;;0.20;99.90;;;;;;5024543;28;20244;-85
2021/01/15 02:32:29;;;;;;;1999.90;999.90;;;0.20;99.90;;;;;;5023895;28;20166;-85
2021/01/15 02:38:20;;;;;;;1999.90;999.90;;;0.30;99.90;;;;;;5038195;28;20227;-81
2021/01/15 02:40:57;;;;;;;1999.90;999.90;;;0.30;99.90;;;;;;5040732;28;20576;-81
2021/01/15 02:43:25;;;;;;;1999.90;999.90;;;0.30;99.90;;;;;;5040340;28;20160;-81
2021/01/15 02:45:51;;;;;;;1999.90;999.90;;;0.30;99.90;;;;;;5022180;28;20219;-81
2021/01/15 02:48:21;;;;;;;1999.90;999.90;;;0.30;99.90;;;;;;5039043;28;20176;-81
2021/01/15 02:50:47;;;;;;;1999.90;999.90;;;0.30;99.90;;;;;;5040029;28;20146;-81
2021/01/15 02:53:15;;;;;;;1999.90;999.90;;;0.40;99.90;;;;;;5023425;28;20188;-81
2021/01/15 02:55:41;;;;;;;1999.90;999.90;;;0.40;99.90;;;;;;5039745;28;20165;-81
2021/01/15 02:58:07;;;;;;;1999.90;999.90;;;0.30;99.90;;;;;;5039722;28;20583;-81
2021/01/15 03:00:33;;;;;;;1999.90;999.90;;;0.30;99.90;;;;;;5038942;28;20400;-81
2021/01/15 03:03:21;;;;;;;1999.90;999.90;;;0.40;99.90;;;;;;5021740;28;20264;-81
2021/01/15 03:05:50;;;;;;;1999.90;999.90;;;0.40;99.90;;;;;;5039459;28;20391;-81
2021/01/15 03:08:19;;;;;;;1999.90;999.90;;;0.40;99.90;;;;;;5038913;28;20165;-81
2021/01/15 03:10:46;;;;;;;1999.90;999.90;;;0.40;99.90;;;;;;5020817;28;20199;-81
2021/01/15 03:13:14;;;;;;;1999.90;999.90;;;0.40;99.90;;;;;;5039794;28;20173;-81
2021/01/15 03:15:40;;;;;;;1999.90;999.90;;;0.50;99.90;;;;;;5021230;28;20211;-80
2021/01/15 03:18:07;;;;;;;1999.90;999.90;;;0.50;99.90;;;;;;5021729;28;20168;-81
2021/01/15 03:20:34;;;;;;;1999.90;999.90;;;0.50;99.90;;;;;;5021567;28;20264;-81
2021/01/15 03:23:00;;;;;;;1999.90;999.90;;;0.50;99.90;;;;;;5038436;28;20161;-81
2021/01/15 03:25:26;;;;;;;1999.90;999.90;;;0.50;99.90;;;;;;5020929;28;20200;-81
2021/01/15 03:27:54;;;;;;;1999.90;999.90;;;0.60;99.90;;;;;;5021070;28;20172;-81
2021/01/15 03:30:25;;;;;;;1999.90;999.90;;;0.50;99.90;;;;;;5021395;28;20636;-81
2021/01/15 03:32:53;;;;;;;1999.90;999.90;;;0.60;99.90;;;;;;5038717;28;20153;-81
2021/01/15 03:35:23;;;;;;;1999.90;999.90;;;0.70;99.90;;;;;;5039147;28;20228;-81
2021/01/15 03:38:09;;;;;;;1999.90;999.90;;;0.70;99.90;;;;;;5038728;28;20177;-81
2021/01/15 03:40:43;;;;;;;1999.90;999.90;;;0.70;99.90;;;;;;5038923;28;20149;-81
2021/01/15 03:43:15;;;;;;;1999.90;999.90;;;0.90;99.90;;;;;;5038950;28;20173;-81
2021/01/15 03:45:45;;;;;;;1999.90;999.90;;;0.90;99.90;;;;;;5021494;28;20172;-81
2021/01/15 03:48:12;;;;;;;1999.90;999.90;;;0.90;99.90;;;;;;5038543;28;20180;-81
2021/01/15 03:50:38;;;;;;;1999.90;999.90;;;0.90;99.90;;;;;;5020523;28;20161;-81
2021/01/15 03:53:04;;;;;;;1999.90;999.90;;;1.00;99.90;;;;;;5038674;28;20165;-81
2021/01/15 03:55:30;;;;;;;1999.90;999.90;;;1.00;99.90;;;;;;5037263;28;20201;-81
2021/01/15 03:57:56;;;;;;;1999.90;999.90;;;1.00;99.90;;;;;;5020720;28;20172;-80
2021/01/15 04:00:22;;;;;;;1999.90;999.90;;;1.00;99.90;;;;;;5038916;28;20170;-81
2021/01/15 04:02:48;;;;;;;1999.90;999.90;;;1.00;99.90;;;;;;5038765;28;20165;-81
2021/01/15 04:05:14;;;;;;;1999.90;999.90;;;1.10;99.90;;;;;;5038670;28;20161;-81
2021/01/15 04:07:41;;;;;;;1999.90;999.90;;;1.10;99.90;;;;;;5038625;28;20495;-81
2021/01/15 04:10:09;;;;;;;1999.90;999.90;;;1.10;99.90;;;;;;5038982;28;20802;-81
2021/01/15 04:12:36;;;;;;;1999.90;999.90;;;1.10;99.90;;;;;;5021139;28;20533;-81
2021/01/15 04:15:01;;;;;;;1999.90;999.90;;;1.10;99.90;;;;;;5038354;28;20705;-81
2021/01/15 04:17:27;;;;;;;1999.90;999.90;;;1.10;99.90;;;;;;5021170;28;20177;-81
2021/01/15 04:19:53;;;;;;;1999.90;999.90;;;1.10;99.90;;;;;;5038734;28;20165;-81
2021/01/15 04:22:18;;;;;;;1999.90;999.90;;;1.10;99.90;;;;;;5021200;28;20169;-81
2021/01/15 04:24:44;;;;;;;1999.90;999.90;;;1.10;99.90;;;;;;5020312;28;20201;-81
2021/01/15 04:27:09;;;;;;;1999.90;999.90;;;1.10;99.90;;;;;;5038692;28;20184;-81
2021/01/15 04:29:35;;;;;;;1999.90;999.90;;;1.10;99.90;;;;;;5038360;28;20165;-81
2021/01/15 04:32:03;;;;;;;1999.90;999.90;;;1.10;99.90;;;;;;5021038;28;20259;-81
2021/01/15 04:34:30;;;;;;;1999.90;999.90;;;1.20;99.90;;;;;;5038596;28;20977;-81
2021/01/15 04:36:59;;;;;;;1999.90;999.90;;;1.10;99.90;;;;;;5021323;28;20184;-80
2021/01/15 04:39:25;;;;;;;1999.90;999.90;;;1.10;99.90;;;;;;5020476;28;20196;-80
2021/01/15 04:41:52;;;;;;;1999.90;999.90;;;1.00;99.90;;;;;;5020310;28;20161;-81
2021/01/15 04:44:18;;;;;;;1999.90;999.90;;;1.00;99.90;;;;;;5039139;28;20414;-81
2021/01/15 04:46:45;;;;;;;1999.90;999.90;;;1.00;99.90;;;;;;5024950;28;20199;-81
2021/01/15 04:49:17;;;;;;;1999.90;999.90;;;1.10;99.90;;;;;;5042203;28;20176;-81
2021/01/15 04:51:48;;;;;;;1999.90;999.90;;;1.10;99.90;;;;;;5042747;28;20557;-81
2021/01/15 04:54:17;;;;;;;1999.90;999.90;;;1.10;99.90;;;;;;5042698;28;20207;-81
2021/01/15 04:56:50;;;;;;;1999.90;999.90;;;1.20;99.90;;;;;;5024528;28;20228;-81
2021/01/15 04:59:17;;;;;;;1999.90;999.90;;;1.10;99.90;;;;;;5042861;28;20161;-81
2021/01/15 05:01:46;;;;;;;1999.90;999.90;;;1.20;99.90;;;;;;5023695;28;20252;-81
2021/01/15 05:04:13;;;;;;;1999.90;999.90;;;1.20;99.90;;;;;;5041977;28;20196;-80
2021/01/15 05:06:50;;;;;;;1999.90;999.90;;;1.20;99.90;;;;;;5024694;28;20248;-81
2021/01/15 05:09:21;;;;;;;1999.90;999.90;;;1.30;99.90;;;;;;5042241;28;20154;-81
2021/01/15 05:11:48;;;;;;;1999.90;999.90;;;1.40;99.90;;;;;;5041454;28;20252;-81
2021/01/15 05:14:15;;;;;;;1999.90;999.90;;;1.40;99.90;;;;;;5041921;28;20201;-81
2021/01/15 05:16:49;;;;;;;1999.90;999.90;;;1.40;99.90;;;;;;5042311;28;20169;-81
2021/01/15 05:19:16;;;;;;;1999.90;999.90;;;1.40;99.90;;;;;;5024034;28;20145;-81
2021/01/15 05:21:43;;;;;;;1999.90;999.90;;;1.40;99.90;;;;;;5041299;28;20165;-81
2021/01/15 05:24:10;;;;;;;1999.90;999.90;;;1.40;99.90;;;;;;5042071;28;20170;-81
2021/01/15 05:26:40;;;;;;;1999.90;999.90;;;1.40;99.90;;;;;;5023922;28;20169;-81
2021/01/15 05:29:07;;;;;;;1999.90;999.90;;;1.40;99.90;;;;;;5042122;28;20231;-81
2021/01/15 05:31:53;;;;;;;1999.90;999.90;;;1.50;99.90;;;;;;5024648;28;20175;-81
2021/01/15 05:34:21;;;;;;;1999.90;999.90;;;1.40;99.90;;;;;;5042009;28;20655;-80
2021/01/15 05:36:47;;;;;;;1999.90;999.90;;;1.40;99.90;;;;;;5042169;28;20190;-81
2021/01/15 05:39:19;;;;;;;1999.90;999.90;;;1.40;99.90;;;;;;5024537;28;20219;-81
2021/01/15 05:41:46;;;;;;;1999.90;999.90;;;1.40;99.90;;;;;;5041966;28;20149;-80
2021/01/15 05:44:27;;;;;;;1999.90;999.90;;;1.50;99.90;;;;;;5040932;28;20233;-81
2021/01/15 05:46:56;;;;;;;1999.90;999.90;;;1.50;99.90;;;;;;5042036;28;20162;-80
2021/01/15 05:49:22;;;;;;;1999.90;999.90;;;1.40;99.90;;;;;;5041784;28;20248;-80
2021/01/15 05:51:48;;;;;;;1999.90;999.90;;;1.40;99.90;;;;;;5042079;28;20161;-81
2021/01/15 05:54:33;;;;;;;1999.90;999.90;;;1.50;99.90;;;;;;5023835;28;20718;-80
2021/01/15 05:57:02;;;;;;;1999.90;999.90;;;1.40;99.90;;;;;;5040353;28;20151;-81
2021/01/15 05:59:28;;;;;;;1999.90;999.90;;;1.50;99.90;;;;;;5041011;28;20169;-81
2021/01/15 06:01:59;;;;;;;1999.90;999.90;;;1.40;99.90;;;;;;5023970;28;20588;-81
2021/01/15 06:04:35;;;;;;;1999.90;999.90;;;1.40;99.90;;;;;;5041949;28;20624;-80
2021/01/15 06:07:06;;;;;;;1999.90;999.90;;;1.40;99.90;;;;;;5040819;28;20160;-81
2021/01/15 06:09:36;;;;;;;1999.90;999.90;;;1.40;99.90;;;;;;5023143;28;20199;-81
2021/01/15 06:12:10;;;;;;;1999.90;999.90;;;1.40;99.90;;;;;;5040659;28;20206;-81
2021/01/15 06:14:49;;;;;;;1999.90;999.90;;;1.50;99.90;;;;;;5023115;28;20185;-80
2021/01/15 06:17:17;;;;;;;1999.90;999.90;;;1.40;99.90;;;;;;5023608;28;20221;-80
2021/01/15 06:19:53;;;;;;;1999.90;999.90;;;1.40;99.90;;;;;;5041014;28;20248;-81
2021/01/15 06:22:45;;;;;;;1999.90;999.90;;;1.40;99.90;;;;;;5023220;28;20153;-81
2021/01/15 06:25:29;;;;;;;1999.90;999.90;;;1.50;99.90;;;;;;5023049;28;20223;-81
2021/01/15 06:27:57;;;;;;;1999.90;999.90;;;1.50;99.90;;;;;;5041723;28;20157;-81
2021/01/15 06:30:34;;;;;;;1999.90;999.90;;;1.50;99.90;;;;;;5041586;28;20215;-80
2021/01/15 06:33:26;;;;;;;1999.90;999.90;;;1.50;99.90;;;;;;5041051;28;20150;-81
2021/01/15 06:35:52;;;;;;;1999.90;999.90;;;1.60;99.90;;;;;;5020426;28;20193;-80
2021/01/15 06:38:26;;;;;;;1999.90;999.90;;;1.60;99.90;;;;;;5040271;28;20157;-81
2021/01/15 06:40:55;;;;;;;1999.90;999.90;;;1.60;99.90;;;;;;5023369;28;20165;-81
2021/01/15 06:43:31;;;;;;;1999.90;999.90;;;1.60;99.90;;;;;;5040934;28;20184;-81
2021/01/15 06:46:02;;;;;;;1999.90;999.90;;;1.70;99.90;;;;;;5041821;28;20155;-79
2021/01/15 06:48:39;;;;;;;1999.90;999.90;;;1.70;99.90;;;;;;5040208;28;20196;-80
2021/01/15 06:51:11;;;;;;;1999.90;999.90;;;1.70;99.90;;;;;;5021123;28;20172;-81
2021/01/15 06:53:41;;;;;;;1999.90;999.90;;;1.70;99.90;;;;;;5021128;28;20189;-81
2021/01/15 06:56:08;;;;;;;1999.90;999.90;;;1.70;99.90;;;;;;5022014;28;20161;-81
2021/01/15 06:58:41;;;;;;;1999.90;999.90;;;1.70;99.90;;;;;;5022740;28;20536;-81
2021/01/15 07:01:30;;;;;;;1999.90;999.90;;;1.70;99.90;;;;;;5039104;28;20161;-81
2021/01/15 07:04:30;;;;;;;1999.90;999.90;;;1.70;99.90;;;;;;5029957;28;20260;-81
2021/01/15 07:07:22;;;;;;;1999.90;999.90;;;1.70;99.90;;;;;;5023399;28;20259;-81
2021/01/15 07:10:08;;;;;;;1999.90;999.90;;;1.70;99.90;;;;;;5041561;28;20165;-81
2021/01/15 07:12:44;;;;;;;1999.90;999.90;;;1.60;99.90;;;;;;5023485;28;20220;-81
2021/01/15 07:15:26;;;;;;;1999.90;999.90;;;1.60;99.90;;;;;;5022572;28;20201;-81
2021/01/15 07:18:04;;;;;;;1999.90;999.90;;;1.60;99.90;;;;;;5039568;28;20217;-81
2021/01/15 07:20:45;;;;;;;1999.90;999.90;;;1.60;99.90;;;;;;5021800;28;20240;-81
2021/01/15 07:23:27;;;;;;;1999.90;999.90;;;1.60;99.90;;;;;;5038606;28;20167;-82
2021/01/15 07:25:54;;;;;;;1999.90;999.90;;;1.60;99.90;;;;;;5039165;28;20138;-81
2021/01/15 07:28:38;;;;;;;1999.90;999.90;;;1.60;99.90;;;;;;5040189;28;20184;-80
2021/01/15 07:31:35;;;;;;;1999.90;999.90;;;1.60;99.90;;;;;;5038826;28;20290;-81
2021/01/15 07:34:31;;;;;;;1999.90;999.90;;;1.70;99.90;;;;;;5019328;28;20197;-81
2021/01/15 07:37:03;;;;;;;1999.90;999.90;;;1.60;99.90;;;;;;5021400;28;20185;-81
2021/01/15 07:40:00;;;;;;;1999.90;999.90;;;1.60;99.90;;;;;;5038820;28;20169;-81
2021/01/15 07:42:45;;;;;;;1999.90;999.90;;;1.70;99.90;;;;;;5020718;28;20184;-80
2021/01/15 07:46:08;;;;;;;1999.90;999.90;;;1.70;99.90;;;;;;5039734;28;20177;-81
2021/01/15 07:49:08;;;;;;;1999.90;999.90;;;1.70;99.90;;;;;;5022122;28;20169;-81
2021/01/15 07:51:38;;;;;;;1999.90;999.90;;;1.70;99.90;;;;;;5023068;28;20153;-81
2021/01/15 07:54:04;;;;;;;1999.90;999.90;;;1.70;99.90;;;;;;5038864;28;20284;-81
2021/01/15 07:56:36;;;;;;;1999.90;999.90;;;1.70;99.90;;;;;;5040734;28;20240;-81
2021/01/15 08:00:28;;;;;;;1999.90;999.90;;;1.70;99.90;;;;;;5040689;28;20561;-81
2021/01/15 08:05:57;;;;;;;1999.90;999.90;;;1.80;99.90;;;;;;4978996;28;20238;-81
2021/01/15 08:08:45;;;;;;;;;;;;;;;;;;;;;
2021/01/15 08:11:29;;;;;;;1999.90;999.90;;;1.70;99.90;;;;;;4977963;28;20269;-79
2021/01/15 08:14:24;;;;;;;1999.90;999.90;;;1.80;99.90;;;;;;4978397;28;20201;-77
2021/01/15 08:17:21;;;;;;;1999.90;999.90;;;1.80;99.90;;;;;;4977264;28;20170;-78
2021/01/15 08:20:42;;;;;;;;;;;;;;;;;;;;;
2021/01/15 08:27:14;;;;;;;1999.90;999.90;;;1.80;99.90;;;;;;4942235;28;20200;-80
2021/01/15 08:30:03;;;;;;;1999.90;999.90;;;1.80;99.90;;;;;;4978366;28;20194;-80
2021/01/15 08:33:01;;;;;;;1999.90;999.90;;;1.70;99.90;;;;;;4978739;28;20178;-81
2021/01/15 08:35:29;;;;;;;1999.90;999.90;;;1.80;99.90;;;;;;5023170;28;20311;-81
2021/01/15 08:37:59;;;;;;;1999.90;999.90;;;1.80;99.90;;;;;;5039312;28;20652;-80
2021/01/15 08:40:30;;;;;;;1999.90;999.90;;;1.90;99.90;;;;;;5039208;28;20154;-81
2021/01/15 08:42:58;;;;;;;1999.90;999.90;;;1.90;99.90;;;;;;5039516;28;20169;-81
2021/01/15 08:45:25;;;;;;;1999.90;999.90;;;1.90;99.90;;;;;;5021561;28;20196;-81
2021/01/15 08:47:55;;;;;;;1999.90;999.90;;;1.90;99.90;;;;;;5021488;28;20220;-81
2021/01/15 08:50:25;;;;;;;1999.90;999.90;;;2.00;99.90;;;;;;5038931;28;20668;-81
2021/01/15 08:52:51;;;;;;;1999.90;999.90;;;2.00;99.90;;;;;;5039623;28;20248;-80
2021/01/15 08:55:21;;;;;;;1999.90;999.90;;;2.10;99.90;;;;;;5021464;28;20200;-81
2021/01/15 08:57:48;;;;;;;1999.90;999.90;;;2.10;99.90;;;;;;5022148;28;20166;-80
2021/01/15 09:00:24;;;;;;;1999.90;999.90;;;2.20;99.90;;;;;;5020568;28;20229;-80
2021/01/15 09:02:51;;;;;;;1999.90;999.90;;;2.20;99.90;;;;;;5021705;28;20176;-80
2021/01/15 09:05:33;;;;;;;1999.90;999.90;;;2.20;99.90;;;;;;5039118;28;20177;-80
2021/01/15 09:08:15;;;;;;;1999.90;999.90;;;2.30;99.90;;;;;;5039077;28;20233;-77
2021/01/15 09:10:47;;;;;;;1999.90;999.90;;;2.40;99.90;;;;;;5022034;28;20180;-79
2021/01/15 09:16:23;;;;;;;1999.90;999.90;;;2.30;99.90;;;;;;5010076;28;20251;-79
2021/01/15 09:19:02;;;;;;;1999.90;999.90;;;2.40;99.90;;;;;;5021351;28;20161;-79
2021/01/15 09:21:56;;;;;;;1999.90;999.90;;;2.50;99.90;;;;;;5039332;28;20562;-78
2021/01/15 09:27:32;;;;;;;1999.90;999.90;;;2.50;99.90;;;;;;5038881;28;20176;-79
2021/01/15 09:30:31;;;;;;;;;;;;;;;;;;;;;
2021/01/15 09:33:06;;;;;;;1999.90;999.90;;;2.50;99.90;;;;;;5042127;28;20252;-79
2021/01/15 09:35:55;;;;;;;1999.90;999.90;;;2.50;99.90;;;;;;5024005;28;20204;-79
2021/01/15 09:38:29;;;;;;;1999.90;999.90;;;2.60;99.90;;;;;;5024788;28;20185;-79
2021/01/15 09:41:15;;;;;;;1999.90;999.90;;;2.70;99.90;;;;;;5042219;28;20165;-79
2021/01/15 09:43:47;;;;;;;1999.90;999.90;;;2.60;99.90;;;;;;5042643;28;20185;-79
2021/01/15 09:46:43;;;;;;;1999.90;999.90;;;2.60;99.90;;;;;;5024736;28;20648;-79
2021/01/15 09:49:21;;;;;;;1999.90;999.90;;;2.50;99.90;;;;;;5043081;28;20177;-79
2021/01/15 09:51:52;;;;;;;1999.90;999.90;;;2.50;99.90;;;;;;5025645;28;20256;-80
2021/01/15 09:54:30;;;;;;;1999.90;999.90;;;2.60;99.90;;;;;;5043836;28;20185;-79
2021/01/15 09:56:56;;;;;;;1999.90;999.90;;;2.60;99.90;;;;;;5044553;28;20320;-80
2021/01/15 09:59:30;;;;;;;1999.90;999.90;;;2.60;99.90;;;;;;5026587;28;20177;-79
2021/01/15 10:02:31;;;;;;;1999.90;999.90;;;2.60;99.90;;;;;;5043229;28;20404;-79
2021/01/15 10:05:03;;;;;;;1999.90;999.90;;;2.70;99.90;;;;;;5026082;28;20187;-79
2021/01/15 10:07:32;;;;;;;1999.90;999.90;;;2.80;99.90;;;;;;5025802;28;20177;-78
2021/01/15 10:10:03;;;;;;;1999.90;999.90;;;2.70;99.90;;;;;;5042739;28;20173;-80
2021/01/15 10:12:29;;;;;;;1999.90;999.90;;;2.70;99.90;;;;;;5043205;28;20201;-80
2021/01/15 10:14:57;;;;;;;1999.90;999.90;;;2.70;99.90;;;;;;5044056;28;20185;-79
2021/01/15 10:17:26;;;;;;;1999.90;999.90;;;2.50;99.90;;;;;;5026526;28;20415;-79
2021/01/15 10:19:55;;;;;;;1999.90;999.90;;;2.60;99.90;;;;;;5025287;28;20635;-79
2021/01/15 10:22:30;;;;;;;1999.90;999.90;;;2.60;99.90;;;;;;5025372;28;20169;-79
2021/01/15 10:24:59;;;;;;;1999.90;999.90;;;2.70;99.90;;;;;;5027039;28;20172;-79
2021/01/15 10:27:24;;;;;;;1999.90;999.90;;;2.80;99.90;;;;;;5043354;28;20170;-80
2021/01/15 10:29:59;;;;;;;1999.90;999.90;;;2.80;99.90;;;;;;5024284;28;20172;-82
2021/01/15 10:32:57;;;;;;;1999.90;999.90;;;2.80;99.90;;;;;;5024628;28;20188;-82
2021/01/15 10:35:55;;;;;;;1999.90;999.90;;;2.80;99.90;;;;;;5014078;28;20217;-82
2021/01/15 10:38:31;;;;;;;1999.90;999.90;;;2.80;99.90;;;;;;5022204;28;20261;-82
2021/01/15 10:41:09;;;;;;;1999.90;999.90;;;2.80;99.90;;;;;;5041833;28;20613;-82
2021/01/15 10:44:16;;;;;;;1999.90;999.90;;;2.70;99.90;;;;;;5024398;28;20192;-82
2021/01/15 10:47:03;;;;;;;1999.90;999.90;;;2.70;99.90;;;;;;4996754;28;20184;-82
2021/01/15 10:52:50;;;;;;;1999.90;999.90;;;2.70;99.90;;;;;;5043454;28;20165;-79
2021/01/15 10:55:19;;;;;;;1999.90;999.90;;;2.70;99.90;;;;;;5023375;28;20212;-81
2021/01/15 10:57:54;;;;;;;1999.90;999.90;;;2.70;99.90;;;;;;5040638;28;20172;-82
2021/01/15 11:00:32;;;;;;;1999.90;999.90;;;2.80;99.90;;;;;;5024491;28;20171;-83
2021/01/15 11:03:23;;;;;;;1999.90;999.90;;;2.80;99.90;;;;;;5023085;28;20671;-81
2021/01/15 11:06:21;;;;;;;1999.90;999.90;;;2.60;99.90;;;;;;5023657;28;20197;-81
2021/01/15 11:09:48;;;;;;;1999.90;999.90;;;2.60;99.90;;;;;;5022137;28;20192;-82
2021/01/15 11:12:41;;;;;;;1999.90;999.90;;;2.60;99.90;;;;;;4921330;29;20186;-81
2021/01/15 11:22:45;;;;;;;1999.90;999.90;;;2.50;99.90;;;;;;4921198;29;20189;-80
2021/01/15 11:36:00;;;;;;;1999.90;999.90;;;2.60;99.90;;;;;;4908011;29;20197;-81
2021/01/15 11:39:20;;;;;;;1999.90;999.90;;;2.60;99.90;;;;;;4919953;29;20268;-80
2021/01/15 11:46:01;;;;;;;1999.90;999.90;;;2.60;99.90;;;;;;4869544;29;20513;-81
2021/01/15 11:49:18;;;;;;;1999.90;999.90;;;2.60;99.90;;;;;;4934216;28;20240;-79
2021/01/15 11:52:01;;;;;;;;;;;;;;;;;;;;;
2021/01/15 11:55:00;;;;;;;1999.90;999.90;;;2.70;99.90;;;;;;5038527;28;20525;-81
2021/01/15 11:59:51;;;;;;;1999.90;999.90;;;2.80;99.90;;;;;;5104010;23;20264;-84
2021/01/15 12:02:17;;;;;;;1999.90;999.90;;;3.00;99.90;;;;;;5020698;28;20765;-85
2021/01/15 12:04:43;;;;;;;1999.90;999.90;;;2.90;99.90;;;;;;5020838;28;20158;-85
2021/01/15 12:07:08;;;;;;;1999.90;999.90;;;2.90;99.90;;;;;;5021101;28;20177;-85
2021/01/15 12:09:34;;;;;;;1999.90;999.90;;;3.00;99.90;;;;;;5003764;28;20185;-85
2021/01/15 12:12:01;;;;;;;1999.90;999.90;;;3.10;99.90;;;;;;5021533;28;20166;-84
2021/01/15 12:14:29;;;;;;;1999.90;999.90;;;3.20;99.90;;;;;;5021140;28;20190;-85
2021/01/15 12:17:13;;;;;;;1999.90;999.90;;;3.20;99.90;;;;;;5020570;28;20169;-83
2021/01/15 12:19:39;;;;;;;1999.90;999.90;;;3.30;99.90;;;;;;4999636;28;20509;-84
2021/01/15 12:22:05;;;;;;;1999.90;999.90;;;3.30;99.90;;;;;;4998832;28;20257;-84
2021/01/15 12:24:34;;;;;;;1999.90;999.90;;;3.40;99.90;;;;;;4998358;28;20174;-84
2021/01/15 12:26:59;;;;;;;1999.90;999.90;;;3.40;99.90;;;;;;5019091;28;20637;-84
2021/01/15 12:29:27;;;;;;;1999.90;999.90;;;3.50;99.90;;;;;;5016718;28;20228;-83
2021/01/15 12:31:56;;;;;;;1999.90;999.90;;;3.40;99.90;;;;;;5013056;28;20420;-83
2021/01/15 12:34:22;;;;;;;1999.90;999.90;;;3.30;99.90;;;;;;5013786;28;20677;-83
2021/01/15 12:36:48;;;;;;;1999.90;999.90;;;3.30;99.90;;;;;;5013600;28;20178;-83
2021/01/15 12:39:13;;;;;;;1999.90;999.90;;;3.30;99.90;;;;;;5014740;28;20162;-82
2021/01/15 12:41:39;;;;;;;1999.90;999.90;;;3.30;99.90;;;;;;5013110;28;20162;-83
2021/01/15 12:44:05;;;;;;;1999.90;999.90;;;3.30;99.90;;;;;;5013596;28;20169;-83
2021/01/15 12:46:31;;;;;;;1999.90;999.90;;;3.40;99.90;;;;;;5014891;28;20408;-83
2021/01/15 12:48:57;;;;;;;1999.90;999.90;;;3.50;99.90;;;;;;4997184;28;20182;-83
2021/01/15 12:51:22;;;;;;;1999.90;999.90;;;3.60;99.90;;;;;;4999171;28;20174;-84
2021/01/15 12:53:48;;;;;;;1999.90;999.90;;;3.60;99.90;;;;;;5019408;28;20216;-85
2021/01/15 12:56:17;;;;;;;1999.90;999.90;;;3.70;99.90;;;;;;5019677;28;20166;-85
2021/01/15 12:58:43;;;;;;;1999.90;999.90;;;3.70;99.90;;;;;;5001482;28;20194;-85
2021/01/15 13:01:09;;;;;;;1999.90;999.90;;;3.80;99.90;;;;;;5019846;28;20174;-85
2021/01/15 13:03:35;;;;;;;1999.90;999.90;;;3.80;99.90;;;;;;5021447;28;20645;-85
2021/01/15 13:06:00;;;;;;;1999.90;999.90;;;3.90;99.90;;;;;;5006622;28;20420;-85
2021/01/15 13:08:27;;;;;;;1999.90;999.90;;;3.90;99.90;;;;;;5023527;28;20400;-84
2021/01/15 13:10:52;;;;;;;1999.90;999.90;;;3.90;99.90;;;;;;5001962;28;20166;-84
2021/01/15 13:13:21;;;;;;;1999.90;999.90;;;3.90;99.90;;;;;;5019811;28;20174;-84
2021/01/15 13:15:53;;;;;;;1999.90;999.90;;;3.90;99.90;;;;;;5001265;28;20193;-84
2021/01/15 13:18:21;;;;;;;1999.90;999.90;;;4.00;99.90;;;;;;5018909;28;20212;-85
2021/01/15 13:20:50;;;;;;;1999.90;999.90;;;3.90;99.90;;;;;;5023092;28;20162;-85
2021/01/15 13:23:19;;;;;;;1999.90;999.90;;;3.80;99.90;;;;;;5023885;28;20158;-85
2021/01/15 13:25:45;;;;;;;1999.90;999.90;;;3.80;99.90;;;;;;5006105;28;20192;-85
2021/01/15 13:28:13;;;;;;;1999.90;999.90;;;3.90;99.90;;;;;;5023799;28;20245;-85